sensor_id;sensor_type;location;lat;lon;timestamp;P1;durP1;ratioP1;P2;durP2;ratioP2
62535;SDS011;63050;47.514;18.920;2022-09-12T00:00:31;5.20;;;2.30;;
62535;SDS011;63050;47.514;18.920;2022-09-12T00:05:32;3.90;;;2.60;;
62535;SDS011;63050;47.514;18.920;2022-09-12T00:10:36;3.00;;;2.20;;
62535;SDS011;63050;47.514;18.920;2022-09-12T00:15:39;5.50;;;2.50;;
62535;SDS011;63050;47.514;18.920;2022-09-12T00:20:41;3.40;;;2.50;;
62535;SDS011;63050;47.514;18.920;2022-09-12T00:25:44;3.20;;;2.20;;
62535;SDS011;63050;47.514;18.920;2022-09-12T00:30:47;2.90;;;2.10;;
62535;SDS011;63050;47.514;18.920;2022-09-12T00:35:50;2.60;;;2.40;;
62535;SDS011;63050;47.514;18.920;2022-09-12T00:40:52;2.50;;;2.20;;
62535;SDS011;63050;47.514;18.920;2022-09-12T00:45:53;4.00;;;2.50;;
62535;SDS011;63050;47.514;18.920;2022-09-12T00:50:54;3.40;;;2.80;;
62535;SDS011;63050;47.514;18.920;2022-09-12T00:55:55;4.10;;;2.80;;
62535;SDS011;63050;47.514;18.920;2022-09-12T01:00:57;3.20;;;2.70;;
62535;SDS011;63050;47.514;18.920;2022-09-12T01:06:00;3.80;;;2.50;;
62535;SDS011;63050;47.514;18.920;2022-09-12T01:11:05;3.20;;;2.10;;
62535;SDS011;63050;47.514;18.920;2022-09-12T01:16:08;3.10;;;2.30;;
62535;SDS011;63050;47.514;18.920;2022-09-12T01:21:10;3.50;;;2.50;;
62535;SDS011;63050;47.514;18.920;2022-09-12T01:31:48;3.30;;;2.60;;
62535;SDS011;63050;47.514;18.920;2022-09-12T01:37:04;2.80;;;2.60;;
62535;SDS011;63050;47.514;18.920;2022-09-12T01:52:32;4.10;;;2.60;;
62535;SDS011;63050;47.514;18.920;2022-09-12T02:03:11;3.50;;;2.90;;
62535;SDS011;63050;47.514;18.920;2022-09-12T02:08:19;3.60;;;3.30;;
62535;SDS011;63050;47.514;18.920;2022-09-12T02:13:28;4.50;;;3.50;;
62535;SDS011;63050;47.514;18.920;2022-09-12T02:18:39;3.90;;;3.50;;
62535;SDS011;63050;47.514;18.920;2022-09-12T02:23:45;3.70;;;3.20;;
62535;SDS011;63050;47.514;18.920;2022-09-12T02:28:48;4.20;;;3.30;;
62535;SDS011;63050;47.514;18.920;2022-09-12T02:39:28;4.70;;;3.90;;
62535;SDS011;63050;47.514;18.920;2022-09-12T02:44:30;4.40;;;3.90;;
62535;SDS011;63050;47.514;18.920;2022-09-12T02:49:31;5.60;;;4.30;;
62535;SDS011;63050;47.514;18.920;2022-09-12T02:54:32;5.50;;;4.00;;
62535;SDS011;63050;47.514;18.920;2022-09-12T02:59:33;4.40;;;4.00;;
62535;SDS011;63050;47.514;18.920;2022-09-12T03:04:37;4.50;;;4.00;;
62535;SDS011;63050;47.514;18.920;2022-09-12T03:09:54;4.10;;;3.10;;
62535;SDS011;63050;47.514;18.920;2022-09-12T03:25:43;4.60;;;4.10;;
62535;SDS011;63050;47.514;18.920;2022-09-12T03:30:49;6.00;;;4.30;;
62535;SDS011;63050;47.514;18.920;2022-09-12T03:35:54;4.50;;;4.00;;
62535;SDS011;63050;47.514;18.920;2022-09-12T03:40:55;4.30;;;3.90;;
62535;SDS011;63050;47.514;18.920;2022-09-12T03:45:56;4.90;;;4.20;;
62535;SDS011;63050;47.514;18.920;2022-09-12T03:51:00;4.60;;;4.00;;
62535;SDS011;63050;47.514;18.920;2022-09-12T03:56:07;4.90;;;3.90;;
62535;SDS011;63050;47.514;18.920;2022-09-12T04:01:09;5.00;;;4.30;;
62535;SDS011;63050;47.514;18.920;2022-09-12T04:06:13;4.30;;;3.80;;
62535;SDS011;63050;47.514;18.920;2022-09-12T04:11:15;5.70;;;4.00;;
62535;SDS011;63050;47.514;18.920;2022-09-12T04:16:17;4.90;;;3.80;;
62535;SDS011;63050;47.514;18.920;2022-09-12T04:21:19;10.50;;;4.30;;
62535;SDS011;63050;47.514;18.920;2022-09-12T04:26:21;4.30;;;3.90;;
62535;SDS011;63050;47.514;18.920;2022-09-12T04:31:22;4.60;;;4.00;;
62535;SDS011;63050;47.514;18.920;2022-09-12T04:36:23;4.30;;;3.90;;
62535;SDS011;63050;47.514;18.920;2022-09-12T04:41:26;4.00;;;3.60;;
62535;SDS011;63050;47.514;18.920;2022-09-12T04:46:29;4.40;;;3.30;;
62535;SDS011;63050;47.514;18.920;2022-09-12T04:51:32;4.00;;;3.20;;
62535;SDS011;63050;47.514;18.920;2022-09-12T04:56:36;5.40;;;3.90;;
62535;SDS011;63050;47.514;18.920;2022-09-12T05:01:38;4.70;;;4.20;;
62535;SDS011;63050;47.514;18.920;2022-09-12T05:06:39;4.30;;;3.60;;
62535;SDS011;63050;47.514;18.920;2022-09-12T05:11:42;4.10;;;3.50;;
62535;SDS011;63050;47.514;18.920;2022-09-12T05:16:43;4.30;;;3.40;;
62535;SDS011;63050;47.514;18.920;2022-09-12T05:21:45;5.20;;;3.70;;
62535;SDS011;63050;47.514;18.920;2022-09-12T05:26:46;4.40;;;4.00;;
62535;SDS011;63050;47.514;18.920;2022-09-12T05:31:47;4.60;;;4.10;;
62535;SDS011;63050;47.514;18.920;2022-09-12T05:36:50;4.90;;;4.30;;
62535;SDS011;63050;47.514;18.920;2022-09-12T05:41:51;7.00;;;5.20;;
62535;SDS011;63050;47.514;18.920;2022-09-12T05:46:52;7.10;;;6.30;;
62535;SDS011;63050;47.514;18.920;2022-09-12T05:51:53;5.70;;;5.00;;
62535;SDS011;63050;47.514;18.920;2022-09-12T05:56:54;5.60;;;4.90;;
62535;SDS011;63050;47.514;18.920;2022-09-12T06:01:56;5.80;;;5.20;;
62535;SDS011;63050;47.514;18.920;2022-09-12T06:06:57;6.70;;;5.40;;
62535;SDS011;63050;47.514;18.920;2022-09-12T06:11:58;8.60;;;5.60;;
62535;SDS011;63050;47.514;18.920;2022-09-12T06:17:00;5.80;;;5.20;;
62535;SDS011;63050;47.514;18.920;2022-09-12T06:22:01;7.60;;;6.00;;
62535;SDS011;63050;47.514;18.920;2022-09-12T06:27:02;5.60;;;5.00;;
62535;SDS011;63050;47.514;18.920;2022-09-12T06:32:03;7.60;;;5.70;;
62535;SDS011;63050;47.514;18.920;2022-09-12T06:37:04;7.10;;;5.80;;
62535;SDS011;63050;47.514;18.920;2022-09-12T06:42:06;7.10;;;5.10;;
62535;SDS011;63050;47.514;18.920;2022-09-12T06:47:07;7.00;;;6.10;;
62535;SDS011;63050;47.514;18.920;2022-09-12T06:52:08;8.60;;;5.90;;
62535;SDS011;63050;47.514;18.920;2022-09-12T06:57:09;8.20;;;6.20;;
62535;SDS011;63050;47.514;18.920;2022-09-12T07:02:10;6.50;;;5.80;;
62535;SDS011;63050;47.514;18.920;2022-09-12T07:07:11;5.30;;;4.80;;
62535;SDS011;63050;47.514;18.920;2022-09-12T07:12:12;7.30;;;4.80;;
62535;SDS011;63050;47.514;18.920;2022-09-12T07:17:13;6.50;;;4.50;;
62535;SDS011;63050;47.514;18.920;2022-09-12T07:22:14;4.70;;;3.90;;
62535;SDS011;63050;47.514;18.920;2022-09-12T07:27:15;6.60;;;3.50;;
62535;SDS011;63050;47.514;18.920;2022-09-12T07:32:16;4.10;;;3.40;;
62535;SDS011;63050;47.514;18.920;2022-09-12T07:37:17;5.40;;;3.50;;
62535;SDS011;63050;47.514;18.920;2022-09-12T07:42:18;3.90;;;2.70;;
62535;SDS011;63050;47.514;18.920;2022-09-12T07:47:19;2.90;;;2.60;;
62535;SDS011;63050;47.514;18.920;2022-09-12T07:52:20;7.10;;;3.10;;
62535;SDS011;63050;47.514;18.920;2022-09-12T07:57:21;4.00;;;3.50;;
62535;SDS011;63050;47.514;18.920;2022-09-12T08:02:22;6.90;;;3.70;;
62535;SDS011;63050;47.514;18.920;2022-09-12T08:07:23;5.40;;;3.60;;
62535;SDS011;63050;47.514;18.920;2022-09-12T08:12:24;5.20;;;3.80;;
62535;SDS011;63050;47.514;18.920;2022-09-12T08:17:27;6.20;;;3.90;;
62535;SDS011;63050;47.514;18.920;2022-09-12T08:22:29;5.70;;;3.80;;
62535;SDS011;63050;47.514;18.920;2022-09-12T08:27:30;4.40;;;3.50;;
62535;SDS011;63050;47.514;18.920;2022-09-12T08:32:33;6.30;;;3.90;;
62535;SDS011;63050;47.514;18.920;2022-09-12T08:37:34;4.10;;;3.20;;
62535;SDS011;63050;47.514;18.920;2022-09-12T08:42:45;6.20;;;2.90;;
62535;SDS011;63050;47.514;18.920;2022-09-12T08:47:47;4.10;;;3.00;;
62535;SDS011;63050;47.514;18.920;2022-09-12T08:52:56;4.40;;;3.00;;
62535;SDS011;63050;47.514;18.920;2022-09-12T09:03:26;7.40;;;2.50;;
62535;SDS011;63050;47.514;18.920;2022-09-12T09:24:18;4.70;;;2.10;;
62535;SDS011;63050;47.514;18.920;2022-09-12T09:29:42;3.30;;;2.20;;
62535;SDS011;63050;47.514;18.920;2022-09-12T09:34:46;7.10;;;2.80;;
62535;SDS011;63050;47.514;18.920;2022-09-12T09:44:51;4.00;;;2.30;;
62535;SDS011;63050;47.514;18.920;2022-09-12T09:49:53;4.30;;;2.80;;
62535;SDS011;63050;47.514;18.920;2022-09-12T09:55:00;3.90;;;3.20;;
62535;SDS011;63050;47.514;18.920;2022-09-12T10:05:24;3.00;;;2.30;;
62535;SDS011;63050;47.514;18.920;2022-09-12T10:10:25;5.20;;;2.50;;
62535;SDS011;63050;47.514;18.920;2022-09-12T10:15:26;3.40;;;2.10;;
62535;SDS011;63050;47.514;18.920;2022-09-12T10:20:32;3.10;;;2.20;;
62535;SDS011;63050;47.514;18.920;2022-09-12T10:25:39;3.50;;;2.30;;
62535;SDS011;63050;47.514;18.920;2022-09-12T10:30:40;3.20;;;2.30;;
62535;SDS011;63050;47.514;18.920;2022-09-12T10:35:51;3.60;;;2.40;;
62535;SDS011;63050;47.514;18.920;2022-09-12T10:40:54;3.30;;;1.80;;
62535;SDS011;63050;47.514;18.920;2022-09-12T10:56:32;2.30;;;1.50;;
62535;SDS011;63050;47.514;18.920;2022-09-12T11:17:29;2.90;;;1.60;;
62535;SDS011;63050;47.514;18.920;2022-09-12T11:22:51;2.30;;;1.50;;
62535;SDS011;63050;47.514;18.920;2022-09-12T11:28:03;3.90;;;1.70;;
62535;SDS011;63050;47.514;18.920;2022-09-12T11:49:23;5.20;;;2.00;;
62535;SDS011;63050;47.514;18.920;2022-09-12T11:54:41;5.40;;;2.50;;
62535;SDS011;63050;47.514;18.920;2022-09-12T11:59:51;3.10;;;2.10;;
62535;SDS011;63050;47.514;18.920;2022-09-12T12:36:58;5.10;;;2.00;;
62535;SDS011;63050;47.514;18.920;2022-09-12T12:47:46;3.60;;;1.40;;
62535;SDS011;63050;47.514;18.920;2022-09-12T12:52:49;5.60;;;1.50;;
62535;SDS011;63050;47.514;18.920;2022-09-12T12:57:52;3.00;;;1.70;;
62535;SDS011;63050;47.514;18.920;2022-09-12T13:13:19;6.00;;;1.90;;
62535;SDS011;63050;47.514;18.920;2022-09-12T13:18:25;8.90;;;2.40;;
62535;SDS011;63050;47.514;18.920;2022-09-12T13:23:29;3.90;;;1.50;;
62535;SDS011;63050;47.514;18.920;2022-09-12T13:28:31;2.80;;;1.60;;
62535;SDS011;63050;47.514;18.920;2022-09-12T13:38:44;9.60;;;1.80;;
62535;SDS011;63050;47.514;18.920;2022-09-12T13:43:48;6.10;;;1.60;;
62535;SDS011;63050;47.514;18.920;2022-09-12T13:48:49;4.00;;;1.30;;
62535;SDS011;63050;47.514;18.920;2022-09-12T13:53:50;2.70;;;1.50;;
62535;SDS011;63050;47.514;18.920;2022-09-12T13:58:53;6.40;;;1.60;;
62535;SDS011;63050;47.514;18.920;2022-09-12T14:03:56;3.80;;;1.30;;
62535;SDS011;63050;47.514;18.920;2022-09-12T14:09:29;3.30;;;1.50;;
62535;SDS011;63050;47.514;18.920;2022-09-12T14:14:34;3.00;;;1.20;;
62535;SDS011;63050;47.514;18.920;2022-09-12T14:19:36;4.00;;;1.70;;
62535;SDS011;63050;47.514;18.920;2022-09-12T14:24:38;2.50;;;1.40;;
62535;SDS011;63050;47.514;18.920;2022-09-12T14:29:40;3.30;;;1.90;;
62535;SDS011;63050;47.514;18.920;2022-09-12T14:35:02;4.50;;;1.30;;
62535;SDS011;63050;47.514;18.920;2022-09-12T14:40:23;3.70;;;1.30;;
62535;SDS011;63050;47.514;18.920;2022-09-12T14:45:29;4.50;;;1.20;;
62535;SDS011;63050;47.514;18.920;2022-09-12T14:50:31;4.90;;;1.20;;
62535;SDS011;63050;47.514;18.920;2022-09-12T14:55:40;4.70;;;1.20;;
62535;SDS011;63050;47.514;18.920;2022-09-12T15:00:53;2.00;;;1.10;;
62535;SDS011;63050;47.514;18.920;2022-09-12T15:05:57;1.80;;;1.00;;
62535;SDS011;63050;47.514;18.920;2022-09-12T15:10:59;1.70;;;1.00;;
62535;SDS011;63050;47.514;18.920;2022-09-12T15:15:59;4.00;;;1.00;;
62535;SDS011;63050;47.514;18.920;2022-09-12T15:21:01;3.50;;;1.10;;
62535;SDS011;63050;47.514;18.920;2022-09-12T15:26:04;2.00;;;1.00;;
62535;SDS011;63050;47.514;18.920;2022-09-12T15:31:11;2.20;;;1.00;;
62535;SDS011;63050;47.514;18.920;2022-09-12T15:36:25;4.30;;;1.10;;
62535;SDS011;63050;47.514;18.920;2022-09-12T15:41:28;1.50;;;0.90;;
62535;SDS011;63050;47.514;18.920;2022-09-12T15:46:31;5.40;;;1.60;;
62535;SDS011;63050;47.514;18.920;2022-09-12T15:51:32;1.50;;;0.90;;
62535;SDS011;63050;47.514;18.920;2022-09-12T15:56:33;1.90;;;1.00;;
62535;SDS011;63050;47.514;18.920;2022-09-12T16:01:34;5.80;;;1.20;;
62535;SDS011;63050;47.514;18.920;2022-09-12T16:06:35;1.70;;;1.10;;
62535;SDS011;63050;47.514;18.920;2022-09-12T16:11:36;1.70;;;0.90;;
62535;SDS011;63050;47.514;18.920;2022-09-12T16:16:38;1.90;;;0.90;;
62535;SDS011;63050;47.514;18.920;2022-09-12T16:21:39;3.70;;;1.80;;
62535;SDS011;63050;47.514;18.920;2022-09-12T16:26:40;2.90;;;1.00;;
62535;SDS011;63050;47.514;18.920;2022-09-12T16:31:40;6.50;;;1.50;;
62535;SDS011;63050;47.514;18.920;2022-09-12T16:36:41;2.10;;;1.30;;
62535;SDS011;63050;47.514;18.920;2022-09-12T16:41:44;1.30;;;1.00;;
62535;SDS011;63050;47.514;18.920;2022-09-12T16:46:45;2.50;;;1.30;;
62535;SDS011;63050;47.514;18.920;2022-09-12T16:51:46;1.70;;;0.90;;
62535;SDS011;63050;47.514;18.920;2022-09-12T16:56:47;6.40;;;1.30;;
62535;SDS011;63050;47.514;18.920;2022-09-12T17:01:49;1.50;;;0.90;;
62535;SDS011;63050;47.514;18.920;2022-09-12T17:06:50;1.80;;;1.10;;
62535;SDS011;63050;47.514;18.920;2022-09-12T17:11:51;1.40;;;0.90;;
62535;SDS011;63050;47.514;18.920;2022-09-12T17:16:52;1.90;;;0.90;;
62535;SDS011;63050;47.514;18.920;2022-09-12T17:21:53;1.90;;;1.00;;
62535;SDS011;63050;47.514;18.920;2022-09-12T17:26:54;2.80;;;1.00;;
62535;SDS011;63050;47.514;18.920;2022-09-12T17:31:56;2.80;;;0.80;;
62535;SDS011;63050;47.514;18.920;2022-09-12T17:36:57;2.20;;;1.00;;
62535;SDS011;63050;47.514;18.920;2022-09-12T17:41:58;1.50;;;0.80;;
62535;SDS011;63050;47.514;18.920;2022-09-12T17:47:00;1.60;;;0.90;;
62535;SDS011;63050;47.514;18.920;2022-09-12T17:52:01;1.80;;;1.10;;
62535;SDS011;63050;47.514;18.920;2022-09-12T17:57:02;1.70;;;1.20;;
62535;SDS011;63050;47.514;18.920;2022-09-12T18:02:07;2.60;;;1.20;;
62535;SDS011;63050;47.514;18.920;2022-09-12T18:07:14;4.60;;;1.20;;
62535;SDS011;63050;47.514;18.920;2022-09-12T18:12:17;1.90;;;1.00;;
62535;SDS011;63050;47.514;18.920;2022-09-12T18:17:19;1.40;;;0.90;;
62535;SDS011;63050;47.514;18.920;2022-09-12T18:22:20;2.30;;;1.20;;
62535;SDS011;63050;47.514;18.920;2022-09-12T18:27:21;1.60;;;1.10;;
62535;SDS011;63050;47.514;18.920;2022-09-12T18:32:22;3.30;;;1.30;;
62535;SDS011;63050;47.514;18.920;2022-09-12T18:37:23;3.30;;;1.10;;
62535;SDS011;63050;47.514;18.920;2022-09-12T18:42:24;2.00;;;1.30;;
62535;SDS011;63050;47.514;18.920;2022-09-12T18:47:25;3.00;;;1.50;;
62535;SDS011;63050;47.514;18.920;2022-09-12T18:52:25;3.10;;;1.20;;
62535;SDS011;63050;47.514;18.920;2022-09-12T18:57:27;3.50;;;1.40;;
62535;SDS011;63050;47.514;18.920;2022-09-12T19:02:30;4.20;;;1.60;;
62535;SDS011;63050;47.514;18.920;2022-09-12T19:07:30;2.60;;;1.60;;
62535;SDS011;63050;47.514;18.920;2022-09-12T19:12:31;2.80;;;1.50;;
62535;SDS011;63050;47.514;18.920;2022-09-12T19:17:32;5.10;;;1.90;;
62535;SDS011;63050;47.514;18.920;2022-09-12T19:22:33;3.00;;;1.50;;
62535;SDS011;63050;47.514;18.920;2022-09-12T19:27:34;2.10;;;1.50;;
62535;SDS011;63050;47.514;18.920;2022-09-12T19:32:36;3.20;;;1.70;;
62535;SDS011;63050;47.514;18.920;2022-09-12T19:37:37;2.80;;;1.40;;
62535;SDS011;63050;47.514;18.920;2022-09-12T19:42:38;1.90;;;1.40;;
62535;SDS011;63050;47.514;18.920;2022-09-12T19:47:42;3.90;;;1.50;;
62535;SDS011;63050;47.514;18.920;2022-09-12T19:52:43;3.30;;;1.40;;
62535;SDS011;63050;47.514;18.920;2022-09-12T19:57:44;2.60;;;1.60;;
62535;SDS011;63050;47.514;18.920;2022-09-12T20:02:49;2.30;;;1.50;;
62535;SDS011;63050;47.514;18.920;2022-09-12T20:12:52;4.80;;;1.60;;
62535;SDS011;63050;47.514;18.920;2022-09-12T20:17:53;2.20;;;1.40;;
62535;SDS011;63050;47.514;18.920;2022-09-12T20:22:55;3.10;;;1.70;;
62535;SDS011;63050;47.514;18.920;2022-09-12T20:27:55;2.90;;;1.60;;
62535;SDS011;63050;47.514;18.920;2022-09-12T20:32:56;3.40;;;1.60;;
62535;SDS011;63050;47.514;18.920;2022-09-12T20:37:57;2.90;;;1.60;;
62535;SDS011;63050;47.514;18.920;2022-09-12T20:42:59;3.60;;;1.70;;
62535;SDS011;63050;47.514;18.920;2022-09-12T20:48:00;2.70;;;1.60;;
62535;SDS011;63050;47.514;18.920;2022-09-12T20:53:01;2.30;;;1.50;;
62535;SDS011;63050;47.514;18.920;2022-09-12T20:58:02;2.20;;;1.60;;
62535;SDS011;63050;47.514;18.920;2022-09-12T21:03:03;2.90;;;1.60;;
62535;SDS011;63050;47.514;18.920;2022-09-12T21:08:04;4.10;;;1.70;;
62535;SDS011;63050;47.514;18.920;2022-09-12T21:13:06;3.30;;;1.60;;
62535;SDS011;63050;47.514;18.920;2022-09-12T21:18:08;2.90;;;1.70;;
62535;SDS011;63050;47.514;18.920;2022-09-12T21:23:09;3.90;;;2.10;;
62535;SDS011;63050;47.514;18.920;2022-09-12T21:28:11;3.00;;;1.50;;
62535;SDS011;63050;47.514;18.920;2022-09-12T21:33:11;5.80;;;1.70;;
62535;SDS011;63050;47.514;18.920;2022-09-12T21:38:16;4.70;;;1.90;;
62535;SDS011;63050;47.514;18.920;2022-09-12T21:43:17;2.60;;;1.70;;
62535;SDS011;63050;47.514;18.920;2022-09-12T21:48:18;2.70;;;1.70;;
62535;SDS011;63050;47.514;18.920;2022-09-12T21:53:19;2.90;;;1.70;;
62535;SDS011;63050;47.514;18.920;2022-09-12T21:58:20;3.40;;;2.00;;
62535;SDS011;63050;47.514;18.920;2022-09-12T22:03:21;3.90;;;1.80;;
62535;SDS011;63050;47.514;18.920;2022-09-12T22:08:22;3.20;;;1.60;;
62535;SDS011;63050;47.514;18.920;2022-09-12T22:13:23;2.40;;;1.60;;
62535;SDS011;63050;47.514;18.920;2022-09-12T22:18:24;5.90;;;1.60;;
62535;SDS011;63050;47.514;18.920;2022-09-12T22:23:25;4.70;;;1.70;;
62535;SDS011;63050;47.514;18.920;2022-09-12T22:28:45;3.30;;;1.60;;
62535;SDS011;63050;47.514;18.920;2022-09-12T22:33:46;2.20;;;1.70;;
62535;SDS011;63050;47.514;18.920;2022-09-12T22:38:48;2.20;;;1.60;;
62535;SDS011;63050;47.514;18.920;2022-09-12T22:43:49;2.20;;;1.70;;
62535;SDS011;63050;47.514;18.920;2022-09-12T22:48:50;3.50;;;1.90;;
62535;SDS011;63050;47.514;18.920;2022-09-12T22:53:51;3.40;;;1.50;;
62535;SDS011;63050;47.514;18.920;2022-09-12T22:58:52;4.10;;;1.30;;
62535;SDS011;63050;47.514;18.920;2022-09-12T23:03:54;3.40;;;1.80;;
62535;SDS011;63050;47.514;18.920;2022-09-12T23:08:55;3.90;;;1.90;;
62535;SDS011;63050;47.514;18.920;2022-09-12T23:13:56;2.20;;;1.70;;
62535;SDS011;63050;47.514;18.920;2022-09-12T23:18:57;2.10;;;1.30;;
62535;SDS011;63050;47.514;18.920;2022-09-12T23:23:58;4.40;;;1.60;;
62535;SDS011;63050;47.514;18.920;2022-09-12T23:28:59;2.40;;;1.60;;
62535;SDS011;63050;47.514;18.920;2022-09-12T23:34:02;3.90;;;2.20;;
62535;SDS011;63050;47.514;18.920;2022-09-12T23:39:05;3.40;;;1.80;;
62535;SDS011;63050;47.514;18.920;2022-09-12T23:44:06;4.50;;;2.00;;
62535;SDS011;63050;47.514;18.920;2022-09-12T23:49:07;3.50;;;2.00;;
62535;SDS011;63050;47.514;18.920;2022-09-12T23:54:08;3.70;;;1.80;;
62535;SDS011;63050;47.514;18.920;2022-09-12T23:59:09;2.70;;;1.80;;
